Time;durP1;ratioP1;P1;durP2;ratioP2;P2;SDS_P1;SDS_P2;PMS_P1;PMS_P2;Temp;Humidity;BMP_temperature;BMP_pressure;BME280_temperature;BME280_humidity;BME280_pressure;Samples;Min_cycle;Max_cycle;Signal;HPM_P1;HPM_P2
2023/08/30 00:00:12;;;;;;;8.85;7.78;;;;;;;12.99;100.00;100061.00;703259;28;1335;-65
2023/08/30 00:00:32;;;;;;;9.38;7.97;;;;;;;13.00;100.00;100070.59;703026;28;652;-65
2023/08/30 00:00:53;;;;;;;10.17;7.80;;;;;;;12.99;100.00;100069.75;700811;27;4472;-66
2023/08/30 00:01:13;;;;;;;10.20;7.63;;;;;;;12.98;100.00;100075.03;701755;28;1886;-65
2023/08/30 00:01:34;;;;;;;9.57;7.87;;;;;;;12.96;100.00;100069.81;703522;28;943;-65
2023/08/30 00:01:54;;;;;;;9.13;7.82;;;;;;;12.95;100.00;100065.47;699781;28;1590;-65
2023/08/30 00:02:15;;;;;;;8.67;7.63;;;;;;;12.94;100.00;100067.25;701705;28;805;-65
2023/08/30 00:02:36;;;;;;;8.60;7.70;;;;;;;12.94;100.00;100068.97;702883;28;749;-65
2023/08/30 00:02:57;;;;;;;9.05;7.75;;;;;;;12.94;100.00;100072.50;702076;28;2572;-65
2023/08/30 00:03:17;;;;;;;9.70;8.02;;;;;;;12.95;100.00;100074.19;702563;28;1379;-65
2023/08/30 00:03:38;;;;;;;9.23;7.60;;;;;;;12.98;100.00;100069.78;701691;28;1363;-65
2023/08/30 00:03:58;;;;;;;9.02;7.40;;;;;;;13.02;100.00;100063.56;698340;28;4493;-65
2023/08/30 00:04:18;;;;;;;8.50;7.60;;;;;;;13.06;100.00;100075.72;700841;28;867;-65
2023/08/30 00:04:39;;;;;;;9.50;7.63;;;;;;;13.05;100.00;100074.81;700334;28;784;-65
2023/08/30 00:05:00;;;;;;;11.27;7.80;;;;;;;13.05;100.00;100064.31;701521;28;2492;-65
2023/08/30 00:05:20;;;;;;;9.88;8.00;;;;;;;13.09;100.00;100073.00;699033;28;970;-65
2023/08/30 00:05:42;;;;;;;10.13;8.10;;;;;;;13.07;100.00;100075.66;699592;28;873;-65
2023/08/30 00:06:04;;;;;;;9.25;7.88;;;;;;;13.06;100.00;100080.97;700239;28;1829;-65
2023/08/30 00:06:25;;;;;;;10.00;8.30;;;;;;;13.03;100.00;100073.13;701779;28;947;-65
2023/08/30 00:06:45;;;;;;;9.27;8.10;;;;;;;13.02;100.00;100074.06;698027;28;4292;-65
2023/08/30 00:07:05;;;;;;;9.67;8.17;;;;;;;13.00;100.00;100075.84;695396;28;1752;-65
2023/08/30 00:07:26;;;;;;;9.65;8.38;;;;;;;13.02;100.00;100079.31;700322;28;872;-67
2023/08/30 00:07:47;;;;;;;9.80;7.95;;;;;;;13.01;100.00;100077.56;700972;28;871;-65
2023/08/30 00:08:08;;;;;;;9.70;8.40;;;;;;;12.98;100.00;100080.28;698415;28;2589;-65
2023/08/30 00:08:28;;;;;;;10.52;8.57;;;;;;;12.92;100.00;100076.03;700950;28;983;-66
2023/08/30 00:08:49;;;;;;;11.40;8.63;;;;;;;12.91;100.00;100075.16;701161;28;1121;-65
2023/08/30 00:09:09;;;;;;;10.30;8.67;;;;;;;12.89;100.00;100076.09;700559;28;2381;-65
2023/08/30 00:09:29;;;;;;;10.32;8.90;;;;;;;12.88;100.00;100077.00;702634;28;1466;-65
2023/08/30 00:09:50;;;;;;;11.33;8.93;;;;;;;12.87;100.00;100068.25;700940;28;4332;-65
2023/08/30 00:10:10;;;;;;;9.97;8.87;;;;;;;12.86;100.00;100070.91;701073;28;2775;-65
2023/08/30 00:10:31;;;;;;;11.40;8.95;;;;;;;12.84;100.00;100070.97;699051;28;1192;-65
2023/08/30 00:10:51;;;;;;;12.73;9.50;;;;;;;12.84;100.00;100073.59;699430;28;864;-65
2023/08/30 00:11:12;;;;;;;10.60;8.98;;;;;;;12.83;100.00;100084.97;699487;28;1808;-66
2023/08/30 00:11:32;;;;;;;9.83;8.77;;;;;;;12.81;100.00;100075.41;699231;28;1468;-66
2023/08/30 00:11:52;;;;;;;10.35;9.25;;;;;;;12.82;100.00;100072.78;697955;28;1862;-65
2023/08/30 00:12:13;;;;;;;10.80;9.30;;;;;;;12.84;100.00;100076.22;702699;28;1441;-65
2023/08/30 00:12:33;;;;;;;10.27;9.00;;;;;;;12.84;100.00;100072.75;701283;28;819;-64
2023/08/30 00:12:54;;;;;;;10.73;9.63;;;;;;;12.83;100.00;100074.47;700183;28;4489;-66
2023/08/30 00:13:14;;;;;;;11.93;9.38;;;;;;;12.83;100.00;100079.72;702212;28;982;-65
2023/08/30 00:13:35;;;;;;;11.20;9.03;;;;;;;12.85;100.00;100072.69;701318;28;796;-65
2023/08/30 00:14:03;;;;;;;10.55;8.82;;;;;;;12.87;100.00;100075.28;700132;28;1899;-66
2023/08/30 00:14:23;;;;;;;10.77;9.27;;;;;;;12.86;100.00;100071.81;699845;28;1198;-65
2023/08/30 00:14:44;;;;;;;10.00;8.77;;;;;;;12.87;100.00;100075.28;701166;28;1463;-65
2023/08/30 00:15:05;;;;;;;11.05;9.73;;;;;;;12.87;100.00;100078.75;702104;28;1728;-65
2023/08/30 00:15:26;;;;;;;12.15;10.02;;;;;;;12.88;100.00;100071.75;703721;28;1022;-65
2023/08/30 00:15:46;;;;;;;11.48;9.57;;;;;;;12.88;100.00;100077.00;702914;28;4406;-66
2023/08/30 00:16:06;;;;;;;11.27;9.50;;;;;;;12.88;100.00;100067.38;701412;28;1838;-66
2023/08/30 00:16:27;;;;;;;11.27;8.75;;;;;;;12.88;100.00;100072.63;701864;28;3862;-65
2023/08/30 00:16:47;;;;;;;10.10;8.80;;;;;;;12.88;100.00;100074.38;701404;28;1318;-65
2023/08/30 00:17:07;;;;;;;9.80;8.80;;;;;;;12.88;100.00;100072.63;700244;28;1620;-65
2023/08/30 00:17:28;;;;;;;10.50;9.40;;;;;;;12.89;100.00;100065.59;702023;28;1002;-65
2023/08/30 00:17:48;;;;;;;11.23;9.20;;;;;;;12.89;100.00;100071.72;701356;28;780;-65
2023/08/30 00:18:09;;;;;;;12.02;9.20;;;;;;;12.91;100.00;100069.91;699645;28;1450;-65
2023/08/30 00:18:29;;;;;;;11.30;9.40;;;;;;;12.92;100.00;100069.03;700309;28;761;-65
2023/08/30 00:18:50;;;;;;;11.10;9.30;;;;;;;12.91;100.00;100066.44;699357;28;4327;-66
2023/08/30 00:19:10;;;;;;;11.03;9.03;;;;;;;12.90;100.00;100072.56;700612;28;2278;-65
2023/08/30 00:19:31;;;;;;;11.20;9.60;;;;;;;12.88;100.00;100077.00;698471;28;1183;-66
2023/08/30 00:19:52;;;;;;;11.03;9.37;;;;;;;12.88;100.00;100066.53;700420;28;1365;-65
2023/08/30 00:20:13;;;;;;;11.25;9.77;;;;;;;12.86;100.00;100068.31;701895;28;927;-65
2023/08/30 00:20:33;;;;;;;12.30;10.70;;;;;;;12.84;100.00;100064.88;703045;28;1120;-65
2023/08/30 00:20:54;;;;;;;11.35;10.10;;;;;;;12.82;100.00;100070.16;700478;28;1713;-65
2023/08/30 00:21:16;;;;;;;11.30;10.10;;;;;;;12.79;100.00;100062.34;701300;28;757;-65
2023/08/30 00:21:37;;;;;;;11.50;9.90;;;;;;;12.79;100.00;100072.81;701526;28;1431;-65
2023/08/30 00:21:57;;;;;;;11.82;9.88;;;;;;;12.79;100.00;100078.06;700279;28;4872;-66
2023/08/30 00:22:18;;;;;;;12.27;10.10;;;;;;;12.80;100.00;100068.47;700514;28;1685;-65
2023/08/30 00:22:39;;;;;;;11.10;9.88;;;;;;;12.80;100.00;100074.56;703471;28;961;-65
2023/08/30 00:23:00;;;;;;;10.63;9.52;;;;;;;12.81;100.00;100065.78;701814;28;1744;-65
2023/08/30 00:23:20;;;;;;;11.43;9.73;;;;;;;12.84;100.00;100070.13;703183;28;835;-65
2023/08/30 00:23:40;;;;;;;11.18;9.95;;;;;;;12.84;100.00;100070.97;700972;28;1083;-66
2023/08/30 00:24:01;;;;;;;11.53;9.67;;;;;;;12.84;100.00;100067.50;698280;28;2734;-65
2023/08/30 00:24:21;;;;;;;11.10;9.50;;;;;;;12.86;100.00;100069.19;701132;28;1014;-66
2023/08/30 00:24:41;;;;;;;10.60;9.50;;;;;;;12.84;100.00;100063.09;701645;28;4424;-65
2023/08/30 00:25:02;;;;;;;11.03;9.43;;;;;;;12.84;100.00;100068.34;701713;28;1419;-65
2023/08/30 00:25:22;;;;;;;11.20;9.48;;;;;;;12.82;100.00;100064.91;700960;28;812;-65
2023/08/30 00:25:43;;;;;;;10.90;9.80;;;;;;;12.83;100.00;100071.84;700494;28;1302;-65
2023/08/30 00:26:03;;;;;;;10.93;9.82;;;;;;;12.84;100.00;100065.72;701098;28;1831;-66
2023/08/30 00:26:24;;;;;;;12.47;9.53;;;;;;;12.87;100.00;100060.38;701604;28;1245;-65
2023/08/30 00:26:45;;;;;;;12.13;9.27;;;;;;;12.89;100.00;100068.22;702099;28;1137;-65
2023/08/30 00:27:06;;;;;;;10.73;9.23;;;;;;;12.90;100.00;100065.59;696958;28;1696;-65
2023/08/30 00:27:26;;;;;;;11.82;9.63;;;;;;;12.93;100.00;100069.88;697683;28;1369;-65
2023/08/30 00:27:46;;;;;;;10.60;9.50;;;;;;;12.95;100.00;100068.94;695381;28;4444;-65
2023/08/30 00:28:07;;;;;;;12.52;9.73;;;;;;;12.95;100.00;100062.84;693000;28;1910;-65
2023/08/30 00:28:28;;;;;;;11.40;9.73;;;;;;;13.01;100.00;100067.06;693559;28;1481;-65
2023/08/30 00:28:48;;;;;;;11.13;9.13;;;;;;;13.01;100.00;100061.81;698571;28;856;-66
2023/08/30 00:29:09;;;;;;;10.73;8.98;;;;;;;12.99;100.00;100068.84;691485;28;1808;-65
2023/08/30 00:29:30;;;;;;;11.30;9.23;;;;;;;12.98;100.00;100067.16;693931;28;1377;-65
2023/08/30 00:29:50;;;;;;;10.67;9.40;;;;;;;12.97;100.00;100066.28;696797;28;872;-65
2023/08/30 00:30:11;;;;;;;10.60;9.23;;;;;;;12.95;100.00;100068.09;698633;28;1729;-65
2023/08/30 00:30:32;;;;;;;10.40;8.85;;;;;;;12.94;100.00;100063.72;700656;28;994;-65
2023/08/30 00:30:53;;;;;;;10.97;9.00;;;;;;;12.94;100.00;100056.75;698896;28;4484;-65
2023/08/30 00:31:14;;;;;;;11.30;9.25;;;;;;;12.93;100.00;100060.25;701891;28;1661;-66
2023/08/30 00:31:34;;;;;;;13.43;9.65;;;;;;;12.92;100.00;100058.53;702736;28;938;-65
2023/08/30 00:31:55;;;;;;;11.40;8.90;;;;;;;12.91;100.00;100064.66;699188;28;1944;-65
2023/08/30 00:32:16;;;;;;;10.07;8.98;;;;;;;12.91;100.00;100067.28;701077;28;957;-65
2023/08/30 00:32:36;;;;;;;10.75;9.10;;;;;;;12.90;100.00;100065.59;700370;28;1434;-65
2023/08/30 00:32:57;;;;;;;10.80;9.20;;;;;;;12.92;100.00;100062.94;700092;28;2770;-66
2023/08/30 00:33:17;;;;;;;10.85;9.25;;;;;;;12.93;100.00;100064.63;702130;28;887;-65
2023/08/30 00:33:37;;;;;;;10.90;9.57;;;;;;;12.94;100.00;100067.25;702940;28;1297;-66
2023/08/30 00:33:58;;;;;;;10.93;9.40;;;;;;;12.98;100.00;100061.91;696792;28;4330;-65
2023/08/30 00:34:18;;;;;;;10.80;9.40;;;;;;;12.98;100.00;100068.00;699712;28;1309;-66
2023/08/30 00:34:38;;;;;;;11.67;9.77;;;;;;;12.95;100.00;100068.94;698949;28;1022;-65
2023/08/30 00:34:59;;;;;;;11.30;10.00;;;;;;;12.94;100.00;100064.63;695717;28;2639;-66
2023/08/30 00:35:19;;;;;;;11.23;9.70;;;;;;;12.93;100.00;100065.50;695212;28;895;-65
2023/08/30 00:35:40;;;;;;;10.67;9.33;;;;;;;12.94;100.00;100066.34;693958;28;1094;-65
2023/08/30 00:36:00;;;;;;;11.23;9.38;;;;;;;12.93;100.00;100059.38;691431;28;2227;-65
2023/08/30 00:36:21;;;;;;;11.65;9.82;;;;;;;12.93;100.00;100064.63;694767;28;1378;-65
2023/08/30 00:36:42;;;;;;;11.68;9.80;;;;;;;12.91;100.00;100063.81;691456;28;4525;-65
2023/08/30 00:37:03;;;;;;;11.23;9.73;;;;;;;12.89;100.00;100066.47;696108;28;1955;-65
2023/08/30 00:37:23;;;;;;;11.68;10.25;;;;;;;12.88;100.00;100064.75;695403;28;837;-65
2023/08/30 00:37:44;;;;;;;11.02;9.82;;;;;;;12.87;100.00;100063.00;694226;28;987;-65
2023/08/30 00:38:04;;;;;;;11.47;9.93;;;;;;;12.85;100.00;100062.19;693095;28;1713;-65
2023/08/30 00:38:27;;;;;;;11.90;9.90;;;;;;;12.85;100.00;100063.94;696498;28;908;-70
2023/08/30 00:38:47;;;;;;;11.98;10.07;;;;;;;12.85;100.00;100059.59;700526;28;5446;-65
2023/08/30 00:39:08;;;;;;;11.70;10.00;;;;;;;12.84;100.00;100057.84;693790;28;1774;-65
2023/08/30 00:39:28;;;;;;;11.77;10.07;;;;;;;12.84;100.00;100062.25;694689;28;1315;-65
2023/08/30 00:39:49;;;;;;;11.30;9.90;;;;;;;12.84;100.00;100060.47;694560;28;4606;-66
2023/08/30 00:40:10;;;;;;;11.33;10.07;;;;;;;12.84;100.00;100065.72;694768;28;1483;-66
2023/08/30 00:40:39;;;;;;;12.05;10.23;;;;;;;12.84;100.00;100057.84;696034;28;904;-65
2023/08/30 00:41:00;;;;;;;12.55;10.02;;;;;;;12.84;100.00;100055.22;695840;28;1828;-65
2023/08/30 00:41:20;;;;;;;11.70;9.90;;;;;;;12.84;100.00;100063.09;699395;28;1566;-65
2023/08/30 00:41:41;;;;;;;12.45;9.70;;;;;;;12.85;100.00;100058.69;696124;28;1402;-66
2023/08/30 00:42:05;;;;;;;12.53;10.27;;;;;;;12.82;100.00;100062.28;694899;28;1721;-65
2023/08/30 00:42:27;;;;;;;11.20;9.82;;;;;;;12.82;100.00;100058.78;695851;28;2200;-65
2023/08/30 00:42:48;;;;;;;12.02;10.02;;;;;;;12.84;100.00;100054.38;697899;28;4334;-66
2023/08/30 00:43:08;;;;;;;11.47;9.50;;;;;;;12.84;100.00;100054.38;700160;28;2453;-65
2023/08/30 00:43:28;;;;;;;11.75;9.57;;;;;;;12.85;100.00;100061.31;702783;28;1252;-65
2023/08/30 00:43:49;;;;;;;11.07;9.10;;;;;;;12.88;100.00;100056.88;700519;28;887;-65
2023/08/30 00:44:09;;;;;;;11.32;9.55;;;;;;;12.92;100.00;100058.53;698721;28;2262;-65
2023/08/30 00:44:30;;;;;;;13.13;9.80;;;;;;;12.91;100.00;100056.78;697280;28;1432;-65
2023/08/30 00:44:50;;;;;;;12.80;10.02;;;;;;;12.90;100.00;100052.47;697918;28;1287;-65
2023/08/30 00:45:11;;;;;;;12.30;9.83;;;;;;;12.91;100.00;100048.94;693086;28;1799;-65
2023/08/30 00:45:33;;;;;;;11.50;10.27;;;;;;;12.94;100.00;100055.88;698306;28;931;-65
2023/08/30 00:45:53;;;;;;;11.32;10.10;;;;;;;12.93;100.00;100052.38;697097;28;4631;-65
2023/08/30 00:46:15;;;;;;;11.43;9.90;;;;;;;12.98;100.00;100060.13;696635;28;2363;-65
2023/08/30 00:46:36;;;;;;;11.30;10.10;;;;;;;12.98;100.00;100054.03;697464;28;1486;-66
2023/08/30 00:46:56;;;;;;;11.83;10.20;;;;;;;13.01;100.00;100052.19;695701;28;1675;-65
2023/08/30 00:47:17;;;;;;;11.97;9.90;;;;;;;13.02;100.00;100060.94;697197;28;861;-66
2023/08/30 00:47:37;;;;;;;10.90;9.50;;;;;;;13.00;100.00;100058.34;696801;28;1401;-66
2023/08/30 00:47:58;;;;;;;11.23;9.50;;;;;;;12.95;100.00;100055.81;698000;28;1976;-65
2023/08/30 00:48:20;;;;;;;11.20;9.37;;;;;;;12.92;100.00;100048.03;696230;28;1452;-66
2023/08/30 00:48:41;;;;;;;10.80;9.70;;;;;;;12.90;100.00;100055.09;697432;28;4569;-65
2023/08/30 00:49:04;;;;;;;11.10;9.52;;;;;;;12.88;100.00;100054.25;696795;28;1446;-66
2023/08/30 00:49:25;;;;;;;11.43;9.40;;;;;;;12.86;100.00;100049.94;695717;28;2077;-66
2023/08/30 00:49:45;;;;;;;10.57;9.30;;;;;;;12.85;100.00;100053.44;700016;28;1298;-65
2023/08/30 00:50:06;;;;;;;10.63;9.20;;;;;;;12.81;100.00;100055.31;700120;28;2282;-65
2023/08/30 00:50:27;;;;;;;11.52;9.25;;;;;;;12.80;100.00;100053.56;701798;28;848;-66
2023/08/30 00:50:48;;;;;;;10.93;9.50;;;;;;;12.80;100.00;100053.56;702187;28;1226;-65
2023/08/30 00:51:09;;;;;;;10.80;9.40;;;;;;;12.82;100.00;100051.78;701692;27;1461;-65
2023/08/30 00:51:30;;;;;;;11.37;9.50;;;;;;;12.84;100.00;100047.34;698419;28;1246;-65
2023/08/30 00:51:54;;;;;;;11.07;9.80;;;;;;;12.83;100.00;100050.88;696655;28;4557;-65
2023/08/30 00:52:15;;;;;;;11.93;9.65;;;;;;;12.86;100.00;100050.81;695612;28;2457;-65
2023/08/30 00:52:38;;;;;;;11.73;9.73;;;;;;;12.85;100.00;100049.09;700229;28;887;-65
2023/08/30 00:52:58;;;;;;;10.93;9.68;;;;;;;12.87;100.00;100047.28;702878;27;1456;-65
2023/08/30 00:53:19;;;;;;;10.83;9.63;;;;;;;12.88;100.00;100045.53;706874;27;914;-66
2023/08/30 00:53:39;;;;;;;12.43;9.52;;;;;;;12.91;100.00;100053.31;706678;27;1510;-66
2023/08/30 00:54:00;;;;;;;11.93;9.73;;;;;;;12.91;100.00;100050.69;706292;27;2497;-65
2023/08/30 00:54:21;;;;;;;13.18;10.20;;;;;;;12.90;100.00;100043.72;702775;28;1411;-65
2023/08/30 00:54:41;;;;;;;12.73;10.50;;;;;;;12.86;100.00;100053.44;701749;28;4434;-65
2023/08/30 00:55:02;;;;;;;11.45;10.00;;;;;;;12.85;100.00;100051.72;697428;28;1016;-65
2023/08/30 00:55:23;;;;;;;12.47;10.50;;;;;;;12.86;100.00;100048.19;699447;28;775;-66
2023/08/30 00:55:44;;;;;;;12.50;10.63;;;;;;;12.86;100.00;100047.31;699464;28;840;-66
2023/08/30 00:56:04;;;;;;;12.23;10.60;;;;;;;12.86;100.00;100049.94;698530;28;1879;-65
2023/08/30 00:56:27;;;;;;;12.03;10.53;;;;;;;12.84;100.00;100044.72;698455;28;1805;-66
2023/08/30 00:56:47;;;;;;;11.23;10.02;;;;;;;12.83;100.00;100047.41;698950;28;1233;-65
2023/08/30 00:57:10;;;;;;;11.68;10.43;;;;;;;12.90;100.00;100043.72;697372;28;1680;-66
2023/08/30 00:57:31;;;;;;;11.68;10.45;;;;;;;12.95;100.00;100045.31;695552;28;1273;-66
2023/08/30 00:57:51;;;;;;;12.68;10.50;;;;;;;12.94;100.00;100045.38;696209;28;4396;-66
2023/08/30 00:58:12;;;;;;;11.77;10.50;;;;;;;12.90;100.00;100052.47;697096;28;1638;-65
2023/08/30 00:58:33;;;;;;;12.25;10.80;;;;;;;12.93;100.00;100049.75;697702;28;1345;-66
2023/08/30 00:58:55;;;;;;;13.18;10.90;;;;;;;12.94;100.00;100048.00;694630;28;922;-65
2023/08/30 00:59:15;;;;;;;12.43;10.82;;;;;;;12.91;100.00;100043.69;696183;28;1519;-65
2023/08/30 00:59:36;;;;;;;12.40;10.43;;;;;;;12.91;100.00;100048.94;696635;28;1270;-65
2023/08/30 00:59:57;;;;;;;12.10;10.73;;;;;;;12.90;100.00;100039.34;694651;28;2847;-65
2023/08/30 01:00:18;;;;;;;12.75;11.00;;;;;;;12.90;100.00;100041.09;695908;28;1997;-65
2023/08/30 01:00:39;;;;;;;12.43;10.57;;;;;;;12.89;100.00;100048.13;697138;28;849;-65
2023/08/30 01:01:00;;;;;;;12.35;10.70;;;;;;;12.88;100.00;100041.13;690447;28;4926;-65
2023/08/30 01:01:21;;;;;;;13.20;10.90;;;;;;;12.88;100.00;100046.38;692863;28;1203;-65
2023/08/30 01:01:41;;;;;;;12.70;10.80;;;;;;;12.87;100.00;100044.66;693382;28;1194;-65
2023/08/30 01:02:02;;;;;;;12.60;10.82;;;;;;;12.89;100.00;100042.88;692156;28;2233;-65
2023/08/30 01:02:23;;;;;;;12.30;10.70;;;;;;;12.88;100.00;100041.13;694281;28;1386;-65
2023/08/30 01:02:44;;;;;;;12.25;10.70;;;;;;;12.88;100.00;100038.50;696788;28;2055;-65
2023/08/30 01:03:07;;;;;;;14.20;11.00;;;;;;;12.88;100.00;100041.13;695794;28;1833;-65
2023/08/30 01:06:07;;;;;;;13.55;10.57;;;;;;;12.88;100.00;100035.88;686742;28;5187;-64
2023/08/30 01:07:30;;;;;;;12.48;11.15;;;;;;;12.85;100.00;100025.47;702621;28;1431;-65
2023/08/30 01:08:29;;;;;;;13.55;10.35;;;;;;;12.82;100.00;100029.94;700678;28;1964;-65
2023/08/30 01:08:51;;;;;;;11.68;10.10;;;;;;;12.83;100.00;100032.50;700766;28;1546;-66
2023/08/30 01:09:31;;;;;;;13.02;10.90;;;;;;;12.84;100.00;100030.78;700360;28;1495;-66
2023/08/30 01:10:47;;;;;;;13.00;10.73;;;;;;;12.78;100.00;100029.16;686153;28;4602;-65
2023/08/30 01:11:55;;;;;;;12.75;10.57;;;;;;;12.79;100.00;100025.63;700557;28;1267;-67
2023/08/30 01:12:57;;;;;;;12.32;10.70;;;;;;;12.82;100.00;100024.69;702122;28;1715;-67
2023/08/30 01:13:30;;;;;;;13.07;10.73;;;;;;;12.83;100.00;100032.50;701814;28;5138;-67
2023/08/30 01:14:09;;;;;;;14.27;11.02;;;;;;;12.86;100.00;100026.31;700689;28;1182;-67
2023/08/30 01:14:59;;;;;;;12.80;10.80;;;;;;;12.87;100.00;100026.28;698162;28;812;-66
2023/08/30 01:15:29;;;;;;;13.80;10.18;;;;;;;12.88;100.00;100030.66;700064;28;2033;-67
2023/08/30 01:16:06;;;;;;;14.10;10.32;;;;;;;12.89;100.00;100028.88;701262;28;4631;-67
2023/08/30 01:16:37;;;;;;;13.60;10.73;;;;;;;12.87;100.00;100028.91;702230;28;1524;-67
2023/08/30 01:16:59;;;;;;;12.25;10.50;;;;;;;12.83;100.00;100027.25;701673;28;1181;-67
2023/08/30 01:17:23;;;;;;;11.95;10.63;;;;;;;12.83;100.00;100037.75;701752;28;836;-67
2023/08/30 01:18:04;;;;;;;11.68;10.43;;;;;;;12.83;100.00;100023.78;702535;28;894;-64
2023/08/30 01:18:33;;;;;;;11.82;10.55;;;;;;;12.78;100.00;100019.50;702214;28;958;-67
2023/08/30 01:19:13;;;;;;;13.82;10.93;;;;;;;12.77;100.00;100022.19;700904;28;5244;-67
2023/08/30 01:19:58;;;;;;;12.88;10.20;;;;;;;12.78;100.00;100024.75;701130;28;895;-67
2023/08/30 01:20:22;;;;;;;12.50;10.85;;;;;;;12.81;100.00;100023.81;702488;28;1113;-65
2023/08/30 01:20:46;;;;;;;12.45;10.63;;;;;;;12.85;100.00;100024.59;702511;28;927;-65
2023/08/30 01:21:17;;;;;;;12.48;11.13;;;;;;;12.86;100.00;100027.22;702014;28;956;-65
2023/08/30 01:22:06;;;;;;;12.45;10.73;;;;;;;12.88;100.00;100024.53;701815;28;1173;-65
2023/08/30 01:22:42;;;;;;;12.13;10.73;;;;;;;12.83;100.00;100022.00;686429;28;5351;-65
2023/08/30 01:23:10;;;;;;;12.23;10.93;;;;;;;12.83;100.00;100015.91;698329;28;1403;-65
2023/08/30 01:23:42;;;;;;;12.50;10.82;;;;;;;12.84;100.00;100015.03;699308;28;1014;-69
2023/08/30 01:24:07;;;;;;;13.20;11.05;;;;;;;12.84;100.00;100018.50;694128;28;936;-65
2023/08/30 01:24:45;;;;;;;13.75;11.02;;;;;;;12.79;100.00;100015.13;698973;28;1294;-65
2023/08/30 01:25:14;;;;;;;12.45;11.05;;;;;;;12.78;100.00;100022.13;701135;28;4691;-65
2023/08/30 01:25:55;;;;;;;12.15;10.82;;;;;;;12.75;100.00;100019.59;702090;28;947;-65
2023/08/30 01:26:33;;;;;;;13.95;11.30;;;;;;;12.73;100.00;100010.03;701389;28;1284;-65
2023/08/30 01:27:10;;;;;;;13.57;11.18;;;;;;;12.74;100.00;100011.78;700638;28;1036;-65
2023/08/30 01:27:34;;;;;;;12.80;11.05;;;;;;;12.76;100.00;100012.56;699298;28;1239;-65
2023/08/30 01:27:56;;;;;;;13.02;10.93;;;;;;;12.77;100.00;100012.53;699402;28;4419;-66
2023/08/30 01:28:21;;;;;;;12.98;11.00;;;;;;;12.77;100.00;100009.06;700697;28;1918;-65
2023/08/30 01:28:41;;;;;;;13.30;10.90;;;;;;;12.76;100.00;100010.81;703853;28;919;-65
2023/08/30 01:29:04;;;;;;;12.80;10.97;;;;;;;12.76;100.00;100009.97;704973;27;1089;-65
2023/08/30 01:29:25;;;;;;;13.55;11.27;;;;;;;12.74;100.00;100007.38;705931;28;978;-64
2023/08/30 01:29:47;;;;;;;15.05;11.90;;;;;;;12.73;100.00;100010.03;702848;28;1344;-65
2023/08/30 01:30:09;;;;;;;13.95;11.63;;;;;;;12.72;100.00;100014.44;700402;28;1272;-65
2023/08/30 01:30:32;;;;;;;13.23;11.40;;;;;;;12.72;100.00;100010.94;697777;28;2409;-65
2023/08/30 01:30:55;;;;;;;13.43;11.38;;;;;;;12.72;100.00;100006.56;698423;28;4363;-65
2023/08/30 01:31:16;;;;;;;13.32;11.75;;;;;;;12.74;100.00;100010.00;698454;28;3660;-65
2023/08/30 01:31:38;;;;;;;13.70;11.45;;;;;;;12.76;100.00;100015.19;698639;28;1090;-65
2023/08/30 01:31:59;;;;;;;13.68;11.45;;;;;;;12.76;100.00;100010.81;696809;28;1449;-66
2023/08/30 01:32:22;;;;;;;14.38;11.13;;;;;;;12.76;100.00;100015.19;698974;28;824;-64
2023/08/30 01:32:43;;;;;;;13.95;11.30;;;;;;;12.75;100.00;100005.59;698169;28;880;-65
2023/08/30 01:33:05;;;;;;;13.68;11.60;;;;;;;12.75;100.00;100005.59;696222;28;1297;-65
2023/08/30 01:33:27;;;;;;;13.02;11.40;;;;;;;12.75;100.00;100005.59;697809;28;1029;-65
2023/08/30 01:33:48;;;;;;;13.05;11.65;;;;;;;12.73;100.00;100010.03;698177;28;4559;-65
2023/08/30 01:34:09;;;;;;;13.48;12.05;;;;;;;12.72;100.00;100006.56;699148;28;1013;-64
2023/08/30 01:34:30;;;;;;;15.07;11.63;;;;;;;12.71;100.00;100001.31;698057;28;1356;-66
2023/08/30 01:34:53;;;;;;;14.10;11.30;;;;;;;12.70;100.00;100005.72;697425;28;864;-65
2023/08/30 01:35:17;;;;;;;14.85;11.88;;;;;;;12.69;100.00;100005.75;693492;28;1431;-67
2023/08/30 01:35:40;;;;;;;13.45;11.32;;;;;;;12.66;100.00;100013.72;697298;28;963;-67
2023/08/30 01:36:03;;;;;;;14.07;11.38;;;;;;;12.65;100.00;100014.59;695908;28;1763;-64
2023/08/30 01:36:24;;;;;;;13.80;11.52;;;;;;;12.65;100.00;100006.72;700055;28;952;-65
2023/08/30 01:36:44;;;;;;;14.20;11.63;;;;;;;12.65;100.00;100011.97;697357;28;4267;-67
2023/08/30 01:37:07;;;;;;;15.27;12.13;;;;;;;12.66;100.00;100006.69;698783;28;1363;-64
2023/08/30 01:37:29;;;;;;;14.73;11.65;;;;;;;12.69;100.00;100008.38;698392;28;903;-65
2023/08/30 01:37:51;;;;;;;14.20;11.40;;;;;;;12.68;100.00;100007.53;699206;28;1289;-67
2023/08/30 01:38:13;;;;;;;13.52;11.50;;;;;;;12.66;100.00;100014.56;699198;28;1019;-65
2023/08/30 01:38:34;;;;;;;13.80;11.43;;;;;;;12.66;100.00;100003.22;696657;28;1093;-65
2023/08/30 01:38:58;;;;;;;15.18;11.63;;;;;;;12.66;100.00;100013.72;698855;28;5858;-65
2023/08/30 01:39:19;;;;;;;15.20;11.73;;;;;;;12.65;100.00;100001.50;698256;28;1197;-65
2023/08/30 01:39:41;;;;;;;13.73;11.80;;;;;;;12.67;100.00;100011.06;699433;28;4456;-65
2023/08/30 01:40:07;;;;;;;12.65;11.23;;;;;;;12.67;100.00;100008.44;696887;28;1215;-65
2023/08/30 01:40:30;;;;;;;14.40;11.95;;;;;;;12.68;100.00;100004.03;698458;28;1443;-65
2023/08/30 01:40:51;;;;;;;14.70;12.32;;;;;;;12.68;100.00;100004.91;700482;28;864;-65
2023/08/30 01:41:12;;;;;;;14.18;12.13;;;;;;;12.68;100.00;100007.53;698824;28;1247;-65
2023/08/30 01:41:35;;;;;;;13.63;12.00;;;;;;;12.67;100.00;100007.53;700326;28;911;-65
2023/08/30 01:41:58;;;;;;;13.73;11.23;;;;;;;12.66;100.00;100004.06;702406;28;1332;-65
2023/08/30 01:42:22;;;;;;;14.60;11.80;;;;;;;12.69;100.00;100008.38;700827;28;1292;-65
2023/08/30 01:42:45;;;;;;;13.00;11.40;;;;;;;12.71;100.00;100003.94;699855;28;4385;-65
2023/08/30 01:43:07;;;;;;;13.35;11.80;;;;;;;12.68;100.00;100011.91;699337;28;1213;-65
2023/08/30 01:43:32;;;;;;;14.98;11.90;;;;;;;12.65;100.00;100006.72;697585;28;1447;-64
2023/08/30 01:43:55;;;;;;;15.27;11.73;;;;;;;12.63;100.00;100009.41;693622;28;2240;-67
2023/08/30 01:44:16;;;;;;;14.27;12.05;;;;;;;12.63;100.00;100013.75;690811;28;1201;-65
2023/08/30 01:44:38;;;;;;;14.75;12.13;;;;;;;12.62;100.00;100009.44;694058;28;972;-64
2023/08/30 01:45:00;;;;;;;14.82;12.65;;;;;;;12.63;100.00;100008.50;695056;28;904;-66
2023/08/30 01:45:23;;;;;;;14.23;12.40;;;;;;;12.63;100.00;100008.50;697625;28;1227;-66
2023/08/30 01:45:44;;;;;;;13.70;11.75;;;;;;;12.66;100.00;100014.56;699740;28;4389;-65
2023/08/30 01:46:06;;;;;;;15.80;12.02;;;;;;;12.70;100.00;100005.72;698365;28;1174;-65
2023/08/30 01:46:30;;;;;;;15.77;12.43;;;;;;;12.72;100.00;100011.81;694083;28;1278;-65
2023/08/30 01:46:51;;;;;;;14.48;12.38;;;;;;;12.70;100.00;100010.97;695239;28;925;-65
2023/08/30 01:47:12;;;;;;;16.15;13.05;;;;;;;12.69;100.00;100013.63;693369;28;1267;-65
2023/08/30 01:47:33;;;;;;;15.32;13.02;;;;;;;12.68;100.00;100014.53;695138;28;1349;-65
2023/08/30 01:47:55;;;;;;;15.98;13.35;;;;;;;12.68;100.00;100009.28;697271;28;1257;-65
2023/08/30 01:48:18;;;;;;;15.35;12.93;;;;;;;12.70;100.00;100012.75;697267;28;1969;-65
2023/08/30 01:48:40;;;;;;;14.88;12.57;;;;;;;12.68;100.00;100007.53;700232;28;1852;-65
2023/08/30 01:49:04;;;;;;;15.57;12.80;;;;;;;12.67;100.00;100007.53;694630;28;6365;-64
2023/08/30 01:49:25;;;;;;;15.68;12.57;;;;;;;12.63;100.00;100014.63;695671;28;1322;-64
2023/08/30 01:49:46;;;;;;;15.32;13.05;;;;;;;12.60;100.00;100012.94;698546;28;1391;-65
2023/08/30 01:50:07;;;;;;;16.48;13.00;;;;;;;12.59;100.00;100013.84;698557;28;1051;-65
2023/08/30 01:50:27;;;;;;;15.60;13.27;;;;;;;12.59;100.00;100011.22;700247;28;1496;-66
2023/08/30 01:50:48;;;;;;;15.07;13.05;;;;;;;12.60;100.00;100012.94;699538;28;1587;-65